sensor_id;sensor_type;location;lat;lon;timestamp;P1;durP1;ratioP1;P2;durP2;ratioP2
10174;SDS011;18221;38.704;0.152;2022-12-29T00:10:09;3.80;;;2.10;;
10174;SDS011;18221;38.704;0.152;2022-12-29T00:12:38;2.67;;;1.93;;
10174;SDS011;18221;38.704;0.152;2022-12-29T00:15:23;4.57;;;1.90;;
10174;SDS011;18221;38.704;0.152;2022-12-29T00:18:04;5.87;;;1.63;;
10174;SDS011;18221;38.704;0.152;2022-12-29T00:20:33;3.00;;;1.73;;
10174;SDS011;18221;38.704;0.152;2022-12-29T00:23:20;2.40;;;1.67;;
10174;SDS011;18221;38.704;0.152;2022-12-29T00:26:10;3.30;;;1.60;;
10174;SDS011;18221;38.704;0.152;2022-12-29T00:28:59;3.80;;;1.60;;
10174;SDS011;18221;38.704;0.152;2022-12-29T00:31:44;6.00;;;1.70;;
10174;SDS011;18221;38.704;0.152;2022-12-29T00:34:29;3.40;;;1.97;;
10174;SDS011;18221;38.704;0.152;2022-12-29T00:37:14;2.63;;;1.70;;
10174;SDS011;18221;38.704;0.152;2022-12-29T00:40:03;2.77;;;1.70;;
10174;SDS011;18221;38.704;0.152;2022-12-29T00:42:51;3.50;;;1.63;;
10174;SDS011;18221;38.704;0.152;2022-12-29T00:45:37;3.47;;;1.77;;
10174;SDS011;18221;38.704;0.152;2022-12-29T00:48:08;2.87;;;1.50;;
10174;SDS011;18221;38.704;0.152;2022-12-29T00:50:36;2.80;;;1.73;;
10174;SDS011;18221;38.704;0.152;2022-12-29T00:53:03;2.63;;;2.00;;
10174;SDS011;18221;38.704;0.152;2022-12-29T00:55:31;2.57;;;1.70;;
10174;SDS011;18221;38.704;0.152;2022-12-29T00:58:05;2.00;;;1.73;;
10174;SDS011;18221;38.704;0.152;2022-12-29T01:00:34;2.47;;;1.70;;
10174;SDS011;18221;38.704;0.152;2022-12-29T01:03:02;3.87;;;1.93;;
10174;SDS011;18221;38.704;0.152;2022-12-29T01:05:30;3.20;;;1.90;;
10174;SDS011;18221;38.704;0.152;2022-12-29T01:08:03;6.83;;;2.23;;
10174;SDS011;18221;38.704;0.152;2022-12-29T01:10:31;3.40;;;2.10;;
10174;SDS011;18221;38.704;0.152;2022-12-29T01:12:59;6.00;;;2.80;;
10174;SDS011;18221;38.704;0.152;2022-12-29T01:15:29;4.77;;;3.50;;
10174;SDS011;18221;38.704;0.152;2022-12-29T01:17:57;7.03;;;4.27;;
10174;SDS011;18221;38.704;0.152;2022-12-29T01:20:25;9.80;;;5.17;;
10174;SDS011;18221;38.704;0.152;2022-12-29T01:22:54;7.07;;;5.90;;
10174;SDS011;18221;38.704;0.152;2022-12-29T01:25:22;9.53;;;5.00;;
10174;SDS011;18221;38.704;0.152;2022-12-29T01:27:50;6.37;;;5.13;;
10174;SDS011;18221;38.704;0.152;2022-12-29T01:30:18;7.17;;;4.63;;
10174;SDS011;18221;38.704;0.152;2022-12-29T01:32:48;5.17;;;4.43;;
10174;SDS011;18221;38.704;0.152;2022-12-29T01:35:17;7.07;;;4.93;;
10174;SDS011;18221;38.704;0.152;2022-12-29T01:37:45;5.70;;;4.13;;
10174;SDS011;18221;38.704;0.152;2022-12-29T01:40:14;10.77;;;4.23;;
10174;SDS011;18221;38.704;0.152;2022-12-29T01:42:42;5.43;;;3.87;;
10174;SDS011;18221;38.704;0.152;2022-12-29T01:45:11;6.30;;;3.37;;
10174;SDS011;18221;38.704;0.152;2022-12-29T01:47:43;5.57;;;3.47;;
10174;SDS011;18221;38.704;0.152;2022-12-29T01:50:28;7.47;;;3.40;;
10174;SDS011;18221;38.704;0.152;2022-12-29T01:53:01;6.10;;;4.20;;
10174;SDS011;18221;38.704;0.152;2022-12-29T01:55:37;8.63;;;4.30;;
10174;SDS011;18221;38.704;0.152;2022-12-29T01:58:13;5.90;;;4.27;;
10174;SDS011;18221;38.704;0.152;2022-12-29T02:00:44;5.33;;;3.20;;
10174;SDS011;18221;38.704;0.152;2022-12-29T02:03:14;3.60;;;2.33;;
10174;SDS011;18221;38.704;0.152;2022-12-29T02:05:48;4.17;;;2.53;;
10174;SDS011;18221;38.704;0.152;2022-12-29T02:08:26;2.93;;;2.07;;
10174;SDS011;18221;38.704;0.152;2022-12-29T02:10:57;6.30;;;2.17;;
10174;SDS011;18221;38.704;0.152;2022-12-29T02:13:28;4.00;;;2.00;;
10174;SDS011;18221;38.704;0.152;2022-12-29T02:15:59;4.07;;;2.20;;
10174;SDS011;18221;38.704;0.152;2022-12-29T02:18:51;7.03;;;2.33;;
10174;SDS011;18221;38.704;0.152;2022-12-29T02:24:49;5.40;;;1.90;;
10174;SDS011;18221;38.704;0.152;2022-12-29T02:27:53;4.70;;;1.70;;
10174;SDS011;18221;38.704;0.152;2022-12-29T02:30:59;3.23;;;1.90;;
10174;SDS011;18221;38.704;0.152;2022-12-29T02:33:45;4.50;;;1.67;;
10174;SDS011;18221;38.704;0.152;2022-12-29T02:36:32;4.77;;;1.90;;
10174;SDS011;18221;38.704;0.152;2022-12-29T02:39:11;4.40;;;1.70;;
10174;SDS011;18221;38.704;0.152;2022-12-29T02:41:53;2.80;;;1.70;;
10174;SDS011;18221;38.704;0.152;2022-12-29T02:44:31;2.77;;;1.67;;
10174;SDS011;18221;38.704;0.152;2022-12-29T02:47:14;3.97;;;1.50;;
10174;SDS011;18221;38.704;0.152;2022-12-29T02:49:53;3.00;;;1.60;;
10174;SDS011;18221;38.704;0.152;2022-12-29T02:52:34;3.33;;;2.00;;
10174;SDS011;18221;38.704;0.152;2022-12-29T02:55:10;5.53;;;1.60;;
10174;SDS011;18221;38.704;0.152;2022-12-29T02:57:37;6.07;;;1.83;;
10174;SDS011;18221;38.704;0.152;2022-12-29T03:00:07;3.73;;;1.43;;
10174;SDS011;18221;38.704;0.152;2022-12-29T03:05:57;3.50;;;1.60;;
10174;SDS011;18221;38.704;0.152;2022-12-29T03:08:43;3.53;;;1.53;;
10174;SDS011;18221;38.704;0.152;2022-12-29T03:11:21;5.07;;;1.70;;
10174;SDS011;18221;38.704;0.152;2022-12-29T03:14:14;5.13;;;1.77;;
10174;SDS011;18221;38.704;0.152;2022-12-29T03:17:14;2.83;;;1.70;;
10174;SDS011;18221;38.704;0.152;2022-12-29T03:19:59;2.97;;;1.87;;
10174;SDS011;18221;38.704;0.152;2022-12-29T03:22:36;5.33;;;2.17;;
10174;SDS011;18221;38.704;0.152;2022-12-29T03:25:14;5.50;;;2.90;;
10174;SDS011;18221;38.704;0.152;2022-12-29T03:27:51;7.13;;;4.67;;
10174;SDS011;18221;38.704;0.152;2022-12-29T03:30:25;8.80;;;4.80;;
10174;SDS011;18221;38.704;0.152;2022-12-29T03:32:57;6.40;;;4.60;;
10174;SDS011;18221;38.704;0.152;2022-12-29T03:35:31;7.63;;;4.53;;
10174;SDS011;18221;38.704;0.152;2022-12-29T03:38:06;5.67;;;4.40;;
10174;SDS011;18221;38.704;0.152;2022-12-29T03:40:41;6.40;;;5.03;;
10174;SDS011;18221;38.704;0.152;2022-12-29T03:43:15;7.23;;;4.47;;
10174;SDS011;18221;38.704;0.152;2022-12-29T03:45:44;7.60;;;4.40;;
10174;SDS011;18221;38.704;0.152;2022-12-29T03:48:12;7.27;;;4.43;;
10174;SDS011;18221;38.704;0.152;2022-12-29T03:50:42;7.07;;;4.60;;
10174;SDS011;18221;38.704;0.152;2022-12-29T03:53:11;10.27;;;5.23;;
10174;SDS011;18221;38.704;0.152;2022-12-29T03:55:39;7.73;;;5.07;;
10174;SDS011;18221;38.704;0.152;2022-12-29T03:58:07;9.40;;;5.33;;
10174;SDS011;18221;38.704;0.152;2022-12-29T04:00:36;7.63;;;5.10;;
10174;SDS011;18221;38.704;0.152;2022-12-29T04:03:04;7.83;;;5.60;;
10174;SDS011;18221;38.704;0.152;2022-12-29T04:05:33;11.77;;;5.63;;
10174;SDS011;18221;38.704;0.152;2022-12-29T04:08:03;8.50;;;5.13;;
10174;SDS011;18221;38.704;0.152;2022-12-29T04:10:31;8.00;;;5.03;;
10174;SDS011;18221;38.704;0.152;2022-12-29T04:13:00;7.77;;;4.97;;
10174;SDS011;18221;38.704;0.152;2022-12-29T04:15:28;6.03;;;4.53;;
10174;SDS011;18221;38.704;0.152;2022-12-29T04:17:57;10.33;;;4.90;;
10174;SDS011;18221;38.704;0.152;2022-12-29T04:20:25;9.87;;;4.60;;
10174;SDS011;18221;38.704;0.152;2022-12-29T04:23:12;5.27;;;4.23;;
10174;SDS011;18221;38.704;0.152;2022-12-29T04:25:40;7.57;;;5.00;;
10174;SDS011;18221;38.704;0.152;2022-12-29T04:28:12;7.33;;;5.07;;
10174;SDS011;18221;38.704;0.152;2022-12-29T04:30:40;7.93;;;4.87;;
10174;SDS011;18221;38.704;0.152;2022-12-29T04:33:10;6.13;;;4.53;;
10174;SDS011;18221;38.704;0.152;2022-12-29T04:35:38;9.37;;;4.73;;
10174;SDS011;18221;38.704;0.152;2022-12-29T04:38:06;6.63;;;3.73;;
10174;SDS011;18221;38.704;0.152;2022-12-29T04:40:37;5.63;;;3.63;;
10174;SDS011;18221;38.704;0.152;2022-12-29T04:43:06;7.37;;;3.17;;
10174;SDS011;18221;38.704;0.152;2022-12-29T04:45:35;5.47;;;3.33;;
10174;SDS011;18221;38.704;0.152;2022-12-29T04:48:04;6.17;;;2.80;;
10174;SDS011;18221;38.704;0.152;2022-12-29T04:50:33;3.53;;;2.67;;
10174;SDS011;18221;38.704;0.152;2022-12-29T04:53:02;4.60;;;2.50;;
10174;SDS011;18221;38.704;0.152;2022-12-29T04:55:30;4.83;;;2.40;;
10174;SDS011;18221;38.704;0.152;2022-12-29T04:58:00;5.60;;;2.13;;
10174;SDS011;18221;38.704;0.152;2022-12-29T05:00:29;3.40;;;2.30;;
10174;SDS011;18221;38.704;0.152;2022-12-29T05:02:57;4.60;;;2.10;;
10174;SDS011;18221;38.704;0.152;2022-12-29T05:05:26;7.47;;;2.17;;
10174;SDS011;18221;38.704;0.152;2022-12-29T05:07:54;4.47;;;2.20;;
10174;SDS011;18221;38.704;0.152;2022-12-29T05:10:22;4.87;;;2.10;;
10174;SDS011;18221;38.704;0.152;2022-12-29T05:12:50;4.23;;;2.00;;
10174;SDS011;18221;38.704;0.152;2022-12-29T05:15:20;4.87;;;2.10;;
10174;SDS011;18221;38.704;0.152;2022-12-29T05:17:49;4.03;;;2.20;;
10174;SDS011;18221;38.704;0.152;2022-12-29T05:20:17;5.67;;;2.90;;
10174;SDS011;18221;38.704;0.152;2022-12-29T05:22:46;3.60;;;2.50;;
10174;SDS011;18221;38.704;0.152;2022-12-29T05:25:14;4.67;;;2.93;;
10174;SDS011;18221;38.704;0.152;2022-12-29T05:27:42;5.23;;;2.77;;
10174;SDS011;18221;38.704;0.152;2022-12-29T05:30:11;4.97;;;3.87;;
10174;SDS011;18221;38.704;0.152;2022-12-29T05:32:41;6.33;;;4.90;;
10174;SDS011;18221;38.704;0.152;2022-12-29T05:35:10;6.70;;;4.40;;
10174;SDS011;18221;38.704;0.152;2022-12-29T05:37:38;8.73;;;4.50;;
10174;SDS011;18221;38.704;0.152;2022-12-29T05:40:07;9.17;;;5.30;;
10174;SDS011;18221;38.704;0.152;2022-12-29T05:42:36;8.10;;;4.77;;
10174;SDS011;18221;38.704;0.152;2022-12-29T05:45:05;8.17;;;5.37;;
10174;SDS011;18221;38.704;0.152;2022-12-29T05:47:38;6.17;;;3.97;;
10174;SDS011;18221;38.704;0.152;2022-12-29T05:50:08;7.67;;;4.73;;
10174;SDS011;18221;38.704;0.152;2022-12-29T05:52:36;6.57;;;4.73;;
10174;SDS011;18221;38.704;0.152;2022-12-29T05:55:05;8.83;;;5.20;;
10174;SDS011;18221;38.704;0.152;2022-12-29T05:57:34;7.73;;;4.77;;
10174;SDS011;18221;38.704;0.152;2022-12-29T06:00:03;6.73;;;4.63;;
10174;SDS011;18221;38.704;0.152;2022-12-29T06:02:33;3.83;;;2.63;;
10174;SDS011;18221;38.704;0.152;2022-12-29T06:05:01;3.30;;;2.20;;
10174;SDS011;18221;38.704;0.152;2022-12-29T06:07:32;5.27;;;2.33;;
10174;SDS011;18221;38.704;0.152;2022-12-29T06:10:00;2.97;;;1.87;;
10174;SDS011;18221;38.704;0.152;2022-12-29T06:12:29;4.17;;;1.63;;
10174;SDS011;18221;38.704;0.152;2022-12-29T06:14:57;4.07;;;2.03;;
10174;SDS011;18221;38.704;0.152;2022-12-29T06:17:26;9.40;;;2.60;;
10174;SDS011;18221;38.704;0.152;2022-12-29T06:19:54;8.60;;;1.80;;
10174;SDS011;18221;38.704;0.152;2022-12-29T06:22:23;4.13;;;1.50;;
10174;SDS011;18221;38.704;0.152;2022-12-29T06:24:53;5.93;;;1.63;;
10174;SDS011;18221;38.704;0.152;2022-12-29T06:27:22;2.83;;;1.77;;
10174;SDS011;18221;38.704;0.152;2022-12-29T06:29:51;3.40;;;1.87;;
10174;SDS011;18221;38.704;0.152;2022-12-29T06:32:19;3.97;;;1.40;;
10174;SDS011;18221;38.704;0.152;2022-12-29T06:34:48;4.60;;;1.90;;
10174;SDS011;18221;38.704;0.152;2022-12-29T06:37:16;5.57;;;2.20;;
10174;SDS011;18221;38.704;0.152;2022-12-29T06:39:44;7.77;;;2.30;;
10174;SDS011;18221;38.704;0.152;2022-12-29T06:42:14;2.43;;;1.50;;
10174;SDS011;18221;38.704;0.152;2022-12-29T06:44:42;4.07;;;2.03;;
10174;SDS011;18221;38.704;0.152;2022-12-29T06:47:11;4.83;;;1.83;;
10174;SDS011;18221;38.704;0.152;2022-12-29T06:49:39;3.03;;;1.60;;
10174;SDS011;18221;38.704;0.152;2022-12-29T06:52:07;3.57;;;1.80;;
10174;SDS011;18221;38.704;0.152;2022-12-29T06:54:36;4.07;;;1.73;;
10174;SDS011;18221;38.704;0.152;2022-12-29T06:57:04;5.47;;;1.63;;
10174;SDS011;18221;38.704;0.152;2022-12-29T06:59:34;2.60;;;1.80;;
10174;SDS011;18221;38.704;0.152;2022-12-29T07:02:02;3.20;;;1.90;;
10174;SDS011;18221;38.704;0.152;2022-12-29T07:04:30;3.97;;;2.17;;
10174;SDS011;18221;38.704;0.152;2022-12-29T07:06:59;5.90;;;1.90;;
10174;SDS011;18221;38.704;0.152;2022-12-29T07:09:27;2.07;;;1.40;;
10174;SDS011;18221;38.704;0.152;2022-12-29T07:11:55;2.87;;;1.50;;
10174;SDS011;18221;38.704;0.152;2022-12-29T07:14:24;4.63;;;1.77;;
10174;SDS011;18221;38.704;0.152;2022-12-29T07:16:54;5.50;;;2.03;;
10174;SDS011;18221;38.704;0.152;2022-12-29T07:19:22;4.03;;;2.00;;
10174;SDS011;18221;38.704;0.152;2022-12-29T07:21:51;4.87;;;1.80;;
10174;SDS011;18221;38.704;0.152;2022-12-29T07:24:21;4.53;;;1.90;;
10174;SDS011;18221;38.704;0.152;2022-12-29T07:26:50;4.87;;;2.07;;
10174;SDS011;18221;38.704;0.152;2022-12-29T07:29:19;3.67;;;2.03;;
10174;SDS011;18221;38.704;0.152;2022-12-29T07:31:47;3.13;;;1.80;;
10174;SDS011;18221;38.704;0.152;2022-12-29T07:34:18;3.70;;;1.80;;
10174;SDS011;18221;38.704;0.152;2022-12-29T07:36:46;5.40;;;1.80;;
10174;SDS011;18221;38.704;0.152;2022-12-29T07:39:14;3.73;;;1.80;;
10174;SDS011;18221;38.704;0.152;2022-12-29T07:41:43;3.10;;;1.77;;
10174;SDS011;18221;38.704;0.152;2022-12-29T07:44:14;3.30;;;1.80;;
10174;SDS011;18221;38.704;0.152;2022-12-29T07:46:42;3.57;;;1.70;;
10174;SDS011;18221;38.704;0.152;2022-12-29T07:49:11;3.90;;;1.60;;
10174;SDS011;18221;38.704;0.152;2022-12-29T07:51:41;2.60;;;1.77;;
10174;SDS011;18221;38.704;0.152;2022-12-29T07:54:09;2.40;;;1.50;;
10174;SDS011;18221;38.704;0.152;2022-12-29T07:56:37;2.17;;;1.40;;
10174;SDS011;18221;38.704;0.152;2022-12-29T07:59:06;2.57;;;1.50;;
10174;SDS011;18221;38.704;0.152;2022-12-29T08:01:34;4.90;;;1.50;;
10174;SDS011;18221;38.704;0.152;2022-12-29T08:04:03;3.10;;;1.53;;
10174;SDS011;18221;38.704;0.152;2022-12-29T08:06:31;3.17;;;1.50;;
10174;SDS011;18221;38.704;0.152;2022-12-29T08:09:01;4.43;;;1.63;;
10174;SDS011;18221;38.704;0.152;2022-12-29T08:11:30;4.73;;;1.60;;
10174;SDS011;18221;38.704;0.152;2022-12-29T08:13:58;6.17;;;2.30;;
10174;SDS011;18221;38.704;0.152;2022-12-29T08:16:27;7.23;;;2.00;;
10174;SDS011;18221;38.704;0.152;2022-12-29T08:18:55;5.83;;;1.60;;
10174;SDS011;18221;38.704;0.152;2022-12-29T08:21:24;5.93;;;1.87;;
10174;SDS011;18221;38.704;0.152;2022-12-29T08:23:54;3.43;;;1.63;;
10174;SDS011;18221;38.704;0.152;2022-12-29T08:26:24;4.37;;;1.43;;
10174;SDS011;18221;38.704;0.152;2022-12-29T08:28:52;4.50;;;1.47;;
10174;SDS011;18221;38.704;0.152;2022-12-29T08:31:21;2.97;;;1.43;;
10174;SDS011;18221;38.704;0.152;2022-12-29T08:33:50;2.77;;;1.50;;
10174;SDS011;18221;38.704;0.152;2022-12-29T08:36:18;5.03;;;1.40;;
10174;SDS011;18221;38.704;0.152;2022-12-29T08:38:47;3.80;;;1.83;;
10174;SDS011;18221;38.704;0.152;2022-12-29T08:41:15;5.70;;;2.10;;
10174;SDS011;18221;38.704;0.152;2022-12-29T08:43:46;4.03;;;2.00;;
10174;SDS011;18221;38.704;0.152;2022-12-29T08:46:15;4.07;;;2.80;;
10174;SDS011;18221;38.704;0.152;2022-12-29T08:48:44;6.23;;;2.93;;
10174;SDS011;18221;38.704;0.152;2022-12-29T08:51:13;4.53;;;1.97;;
10174;SDS011;18221;38.704;0.152;2022-12-29T08:53:42;4.43;;;1.80;;
10174;SDS011;18221;38.704;0.152;2022-12-29T08:56:11;3.57;;;1.70;;
10174;SDS011;18221;38.704;0.152;2022-12-29T08:58:40;3.93;;;1.57;;
10174;SDS011;18221;38.704;0.152;2022-12-29T09:01:10;3.37;;;1.80;;
10174;SDS011;18221;38.704;0.152;2022-12-29T09:03:39;5.43;;;1.87;;
10174;SDS011;18221;38.704;0.152;2022-12-29T09:06:08;2.80;;;1.60;;
10174;SDS011;18221;38.704;0.152;2022-12-29T09:08:37;3.77;;;1.70;;
10174;SDS011;18221;38.704;0.152;2022-12-29T09:11:07;3.07;;;1.40;;
10174;SDS011;18221;38.704;0.152;2022-12-29T09:13:38;4.43;;;1.50;;
10174;SDS011;18221;38.704;0.152;2022-12-29T09:16:11;4.50;;;1.73;;
10174;SDS011;18221;38.704;0.152;2022-12-29T09:18:42;2.70;;;1.63;;
10174;SDS011;18221;38.704;0.152;2022-12-29T09:21:12;8.33;;;1.90;;
10174;SDS011;18221;38.704;0.152;2022-12-29T09:23:41;4.27;;;1.50;;
10174;SDS011;18221;38.704;0.152;2022-12-29T09:26:10;3.13;;;1.60;;
10174;SDS011;18221;38.704;0.152;2022-12-29T09:28:39;4.60;;;1.77;;
10174;SDS011;18221;38.704;0.152;2022-12-29T09:31:11;5.33;;;1.90;;
10174;SDS011;18221;38.704;0.152;2022-12-29T09:33:40;6.37;;;2.00;;
10174;SDS011;18221;38.704;0.152;2022-12-29T09:36:09;3.43;;;1.90;;
10174;SDS011;18221;38.704;0.152;2022-12-29T09:38:37;7.47;;;3.57;;
10174;SDS011;18221;38.704;0.152;2022-12-29T09:41:06;3.97;;;2.50;;
10174;SDS011;18221;38.704;0.152;2022-12-29T09:44:07;7.33;;;2.07;;
10174;SDS011;18221;38.704;0.152;2022-12-29T09:46:49;4.33;;;1.90;;
10174;SDS011;18221;38.704;0.152;2022-12-29T09:49:23;5.23;;;2.00;;
10174;SDS011;18221;38.704;0.152;2022-12-29T09:52:05;4.23;;;1.70;;
10174;SDS011;18221;38.704;0.152;2022-12-29T09:54:45;3.57;;;1.80;;
10174;SDS011;18221;38.704;0.152;2022-12-29T09:57:21;2.97;;;1.87;;
10174;SDS011;18221;38.704;0.152;2022-12-29T09:59:55;3.77;;;1.50;;
10174;SDS011;18221;38.704;0.152;2022-12-29T10:02:33;3.47;;;1.60;;
10174;SDS011;18221;38.704;0.152;2022-12-29T10:05:31;2.87;;;1.80;;
10174;SDS011;18221;38.704;0.152;2022-12-29T10:08:17;6.30;;;3.83;;
10174;SDS011;18221;38.704;0.152;2022-12-29T10:11:02;4.73;;;2.80;;
10174;SDS011;18221;38.704;0.152;2022-12-29T10:13:48;4.90;;;2.00;;
10174;SDS011;18221;38.704;0.152;2022-12-29T10:16:41;5.33;;;2.30;;
10174;SDS011;18221;38.704;0.152;2022-12-29T10:19:27;4.47;;;1.77;;
10174;SDS011;18221;38.704;0.152;2022-12-29T10:22:24;4.77;;;2.83;;
10174;SDS011;18221;38.704;0.152;2022-12-29T10:25:10;8.43;;;4.27;;
10174;SDS011;18221;38.704;0.152;2022-12-29T10:27:44;11.13;;;4.80;;
10174;SDS011;18221;38.704;0.152;2022-12-29T10:30:16;6.03;;;3.40;;
10174;SDS011;18221;38.704;0.152;2022-12-29T10:32:46;4.70;;;2.90;;
10174;SDS011;18221;38.704;0.152;2022-12-29T10:35:22;7.27;;;2.57;;
10174;SDS011;18221;38.704;0.152;2022-12-29T10:37:55;6.50;;;3.00;;
10174;SDS011;18221;38.704;0.152;2022-12-29T10:40:31;3.37;;;2.33;;
10174;SDS011;18221;38.704;0.152;2022-12-29T10:43:12;6.17;;;2.17;;
10174;SDS011;18221;38.704;0.152;2022-12-29T10:45:52;4.57;;;2.30;;
10174;SDS011;18221;38.704;0.152;2022-12-29T10:48:25;5.33;;;2.50;;
10174;SDS011;18221;38.704;0.152;2022-12-29T10:50:59;5.27;;;2.13;;
10174;SDS011;18221;38.704;0.152;2022-12-29T10:53:33;4.37;;;2.70;;
10174;SDS011;18221;38.704;0.152;2022-12-29T10:56:11;4.77;;;2.57;;
10174;SDS011;18221;38.704;0.152;2022-12-29T10:58:52;7.17;;;2.60;;
10174;SDS011;18221;38.704;0.152;2022-12-29T11:01:28;6.27;;;2.90;;
10174;SDS011;18221;38.704;0.152;2022-12-29T11:04:15;2.93;;;2.03;;
10174;SDS011;18221;38.704;0.152;2022-12-29T11:07:04;4.60;;;2.40;;
10174;SDS011;18221;38.704;0.152;2022-12-29T11:09:35;4.93;;;2.80;;
10174;SDS011;18221;38.704;0.152;2022-12-29T11:12:19;3.63;;;2.20;;
10174;SDS011;18221;38.704;0.152;2022-12-29T11:17:46;6.37;;;2.50;;
10174;SDS011;18221;38.704;0.152;2022-12-29T11:20:26;4.53;;;2.23;;
10174;SDS011;18221;38.704;0.152;2022-12-29T11:23:01;4.67;;;2.77;;
10174;SDS011;18221;38.704;0.152;2022-12-29T11:25:34;5.03;;;2.83;;
10174;SDS011;18221;38.704;0.152;2022-12-29T11:28:12;6.23;;;3.10;;
10174;SDS011;18221;38.704;0.152;2022-12-29T11:30:43;8.23;;;3.40;;
10174;SDS011;18221;38.704;0.152;2022-12-29T11:33:11;5.43;;;3.30;;
10174;SDS011;18221;38.704;0.152;2022-12-29T11:35:40;5.77;;;3.67;;
10174;SDS011;18221;38.704;0.152;2022-12-29T11:38:17;7.27;;;3.20;;
10174;SDS011;18221;38.704;0.152;2022-12-29T11:40:50;6.20;;;3.90;;
10174;SDS011;18221;38.704;0.152;2022-12-29T11:43:19;6.00;;;3.87;;
10174;SDS011;18221;38.704;0.152;2022-12-29T11:45:58;7.60;;;3.97;;
10174;SDS011;18221;38.704;0.152;2022-12-29T11:48:29;7.93;;;3.67;;
10174;SDS011;18221;38.704;0.152;2022-12-29T11:51:05;4.80;;;2.97;;
10174;SDS011;18221;38.704;0.152;2022-12-29T11:53:38;7.00;;;3.13;;
10174;SDS011;18221;38.704;0.152;2022-12-29T11:56:14;6.67;;;2.97;;
10174;SDS011;18221;38.704;0.152;2022-12-29T11:58:48;4.93;;;3.10;;
10174;SDS011;18221;38.704;0.152;2022-12-29T12:01:19;5.70;;;3.00;;
10174;SDS011;18221;38.704;0.152;2022-12-29T12:03:56;5.00;;;2.73;;
10174;SDS011;18221;38.704;0.152;2022-12-29T12:06:33;4.63;;;2.40;;
10174;SDS011;18221;38.704;0.152;2022-12-29T12:09:16;6.50;;;2.60;;
10174;SDS011;18221;38.704;0.152;2022-12-29T12:11:54;4.43;;;2.50;;
10174;SDS011;18221;38.704;0.152;2022-12-29T12:14:27;4.33;;;2.80;;
10174;SDS011;18221;38.704;0.152;2022-12-29T12:17:04;8.07;;;2.63;;
10174;SDS011;18221;38.704;0.152;2022-12-29T12:19:41;5.47;;;2.80;;
10174;SDS011;18221;38.704;0.152;2022-12-29T12:22:19;4.67;;;2.53;;
10174;SDS011;18221;38.704;0.152;2022-12-29T12:25:01;4.70;;;2.93;;
10174;SDS011;18221;38.704;0.152;2022-12-29T12:27:41;5.50;;;2.70;;
10174;SDS011;18221;38.704;0.152;2022-12-29T12:30:18;6.83;;;3.30;;
10174;SDS011;18221;38.704;0.152;2022-12-29T12:32:50;5.27;;;2.90;;
10174;SDS011;18221;38.704;0.152;2022-12-29T12:35:30;6.23;;;2.80;;
10174;SDS011;18221;38.704;0.152;2022-12-29T12:38:13;7.33;;;3.30;;
10174;SDS011;18221;38.704;0.152;2022-12-29T12:41:01;4.77;;;2.60;;
10174;SDS011;18221;38.704;0.152;2022-12-29T12:43:43;4.57;;;2.90;;
10174;SDS011;18221;38.704;0.152;2022-12-29T12:46:25;6.90;;;2.47;;
10174;SDS011;18221;38.704;0.152;2022-12-29T12:49:26;3.63;;;2.40;;
10174;SDS011;18221;38.704;0.152;2022-12-29T12:52:21;4.43;;;2.30;;
10174;SDS011;18221;38.704;0.152;2022-12-29T12:55:10;4.33;;;2.43;;
10174;SDS011;18221;38.704;0.152;2022-12-29T12:58:11;5.03;;;1.90;;
10174;SDS011;18221;38.704;0.152;2022-12-29T13:00:56;3.00;;;2.10;;
10174;SDS011;18221;38.704;0.152;2022-12-29T13:03:46;3.10;;;1.70;;
10174;SDS011;18221;38.704;0.152;2022-12-29T13:06:54;3.20;;;1.80;;
10174;SDS011;18221;38.704;0.152;2022-12-29T13:09:39;3.40;;;1.90;;
10174;SDS011;18221;38.704;0.152;2022-12-29T13:12:27;5.23;;;2.20;;
10174;SDS011;18221;38.704;0.152;2022-12-29T13:15:11;3.93;;;2.17;;
10174;SDS011;18221;38.704;0.152;2022-12-29T13:17:52;5.40;;;2.47;;
10174;SDS011;18221;38.704;0.152;2022-12-29T13:20:34;3.67;;;2.13;;
10174;SDS011;18221;38.704;0.152;2022-12-29T13:23:14;3.07;;;2.20;;
10174;SDS011;18221;38.704;0.152;2022-12-29T13:25:55;4.50;;;2.47;;
10174;SDS011;18221;38.704;0.152;2022-12-29T13:28:37;4.23;;;2.20;;
10174;SDS011;18221;38.704;0.152;2022-12-29T13:31:19;3.00;;;2.10;;
10174;SDS011;18221;38.704;0.152;2022-12-29T13:34:00;4.73;;;2.30;;
10174;SDS011;18221;38.704;0.152;2022-12-29T13:36:45;4.40;;;2.30;;
10174;SDS011;18221;38.704;0.152;2022-12-29T13:39:21;7.10;;;3.07;;
10174;SDS011;18221;38.704;0.152;2022-12-29T13:41:58;5.90;;;2.97;;
10174;SDS011;18221;38.704;0.152;2022-12-29T13:44:30;8.83;;;3.10;;
10174;SDS011;18221;38.704;0.152;2022-12-29T13:47:06;6.67;;;3.10;;
10174;SDS011;18221;38.704;0.152;2022-12-29T13:49:50;6.40;;;3.13;;
10174;SDS011;18221;38.704;0.152;2022-12-29T13:52:21;3.80;;;2.90;;
10174;SDS011;18221;38.704;0.152;2022-12-29T13:55:05;5.53;;;2.93;;
10174;SDS011;18221;38.704;0.152;2022-12-29T13:57:51;6.53;;;3.03;;
10174;SDS011;18221;38.704;0.152;2022-12-29T14:00:27;6.17;;;3.00;;
10174;SDS011;18221;38.704;0.152;2022-12-29T14:03:17;6.33;;;3.50;;
10174;SDS011;18221;38.704;0.152;2022-12-29T14:06:15;7.33;;;2.80;;
10174;SDS011;18221;38.704;0.152;2022-12-29T14:08:50;4.80;;;2.83;;
10174;SDS011;18221;38.704;0.152;2022-12-29T14:11:22;7.30;;;3.60;;
10174;SDS011;18221;38.704;0.152;2022-12-29T14:13:58;5.80;;;3.40;;
10174;SDS011;18221;38.704;0.152;2022-12-29T14:16:39;5.97;;;3.30;;
10174;SDS011;18221;38.704;0.152;2022-12-29T14:19:14;10.87;;;4.40;;
10174;SDS011;18221;38.704;0.152;2022-12-29T14:21:51;9.07;;;4.77;;
10174;SDS011;18221;38.704;0.152;2022-12-29T14:24:28;9.07;;;5.17;;
10174;SDS011;18221;38.704;0.152;2022-12-29T14:33:20;9.40;;;4.90;;
10174;SDS011;18221;38.704;0.152;2022-12-29T14:35:53;10.37;;;5.40;;
10174;SDS011;18221;38.704;0.152;2022-12-29T14:38:27;9.03;;;5.33;;
10174;SDS011;18221;38.704;0.152;2022-12-29T14:43:58;10.00;;;5.60;;
10174;SDS011;18221;38.704;0.152;2022-12-29T14:46:49;8.53;;;4.97;;
10174;SDS011;18221;38.704;0.152;2022-12-29T14:49:27;10.27;;;4.80;;
10174;SDS011;18221;38.704;0.152;2022-12-29T14:52:12;8.53;;;4.77;;
10174;SDS011;18221;38.704;0.152;2022-12-29T14:54:50;6.77;;;4.70;;
10174;SDS011;18221;38.704;0.152;2022-12-29T14:57:33;10.27;;;4.30;;
10174;SDS011;18221;38.704;0.152;2022-12-29T15:00:07;7.67;;;4.00;;
10174;SDS011;18221;38.704;0.152;2022-12-29T15:02:46;8.60;;;4.20;;
10174;SDS011;18221;38.704;0.152;2022-12-29T15:05:30;6.90;;;3.80;;
10174;SDS011;18221;38.704;0.152;2022-12-29T15:08:05;8.47;;;4.33;;
10174;SDS011;18221;38.704;0.152;2022-12-29T15:10:39;10.10;;;4.83;;
10174;SDS011;18221;38.704;0.152;2022-12-29T15:13:16;7.63;;;4.17;;
10174;SDS011;18221;38.704;0.152;2022-12-29T15:15:50;8.67;;;3.60;;
10174;SDS011;18221;38.704;0.152;2022-12-29T15:18:22;12.50;;;4.33;;
10174;SDS011;18221;38.704;0.152;2022-12-29T15:20:54;12.53;;;4.37;;
10174;SDS011;18221;38.704;0.152;2022-12-29T15:23:27;5.53;;;3.67;;
10174;SDS011;18221;38.704;0.152;2022-12-29T15:25:59;6.80;;;4.17;;
10174;SDS011;18221;38.704;0.152;2022-12-29T15:28:37;8.83;;;3.60;;
10174;SDS011;18221;38.704;0.152;2022-12-29T15:31:10;9.20;;;3.70;;
10174;SDS011;18221;38.704;0.152;2022-12-29T15:33:41;8.60;;;3.40;;
10174;SDS011;18221;38.704;0.152;2022-12-29T15:36:13;7.80;;;3.57;;
10174;SDS011;18221;38.704;0.152;2022-12-29T15:38:49;7.40;;;3.70;;
10174;SDS011;18221;38.704;0.152;2022-12-29T15:41:25;8.10;;;3.33;;
10174;SDS011;18221;38.704;0.152;2022-12-29T15:44:23;9.13;;;3.37;;
10174;SDS011;18221;38.704;0.152;2022-12-29T15:47:01;6.90;;;3.40;;
10174;SDS011;18221;38.704;0.152;2022-12-29T15:49:38;7.37;;;3.90;;
10174;SDS011;18221;38.704;0.152;2022-12-29T15:52:27;6.27;;;3.80;;
10174;SDS011;18221;38.704;0.152;2022-12-29T15:55:09;8.80;;;3.73;;
10174;SDS011;18221;38.704;0.152;2022-12-29T15:58:20;9.60;;;3.77;;
10174;SDS011;18221;38.704;0.152;2022-12-29T16:00:55;7.87;;;3.30;;